sensor_id;sensor_type;location;lat;lon;timestamp;temperature;humidity
39033;DHT22;24794;51.982;5.878;2023-04-30T00:00:32;11.40;99.90
39033;DHT22;24794;51.982;5.878;2023-04-30T00:01:33;11.40;99.90
39033;DHT22;24794;51.982;5.878;2023-04-30T00:02:33;11.40;99.90
39033;DHT22;24794;51.982;5.878;2023-04-30T00:03:34;11.40;99.90
39033;DHT22;24794;51.982;5.878;2023-04-30T00:04:35;11.40;99.90
39033;DHT22;24794;51.982;5.878;2023-04-30T00:05:36;11.40;99.90
39033;DHT22;24794;51.982;5.878;2023-04-30T00:06:37;11.40;99.90
39033;DHT22;24794;51.982;5.878;2023-04-30T00:07:38;11.40;99.90
39033;DHT22;24794;51.982;5.878;2023-04-30T00:08:41;11.40;99.90
39033;DHT22;24794;51.982;5.878;2023-04-30T00:09:42;11.40;99.90
39033;DHT22;24794;51.982;5.878;2023-04-30T00:10:42;11.40;99.90
39033;DHT22;24794;51.982;5.878;2023-04-30T00:11:43;11.40;99.90
39033;DHT22;24794;51.982;5.878;2023-04-30T00:12:43;11.30;99.90
39033;DHT22;24794;51.982;5.878;2023-04-30T00:13:44;11.30;99.90
39033;DHT22;24794;51.982;5.878;2023-04-30T00:14:44;11.40;99.90
39033;DHT22;24794;51.982;5.878;2023-04-30T00:15:45;11.30;99.90
39033;DHT22;24794;51.982;5.878;2023-04-30T00:16:45;11.30;99.90
39033;DHT22;24794;51.982;5.878;2023-04-30T00:17:46;11.40;99.90
39033;DHT22;24794;51.982;5.878;2023-04-30T00:18:46;11.30;99.90
39033;DHT22;24794;51.982;5.878;2023-04-30T00:19:47;11.30;99.90
39033;DHT22;24794;51.982;5.878;2023-04-30T00:20:47;11.30;99.90
39033;DHT22;24794;51.982;5.878;2023-04-30T00:21:48;11.30;99.90
39033;DHT22;24794;51.982;5.878;2023-04-30T00:22:49;11.30;99.90
39033;DHT22;24794;51.982;5.878;2023-04-30T00:23:49;11.30;99.90
39033;DHT22;24794;51.982;5.878;2023-04-30T00:24:50;11.30;99.90
39033;DHT22;24794;51.982;5.878;2023-04-30T00:25:51;11.30;99.90
39033;DHT22;24794;51.982;5.878;2023-04-30T00:26:51;11.30;99.90
39033;DHT22;24794;51.982;5.878;2023-04-30T00:27:52;11.30;99.90
39033;DHT22;24794;51.982;5.878;2023-04-30T00:28:52;11.20;99.90
39033;DHT22;24794;51.982;5.878;2023-04-30T00:29:53;11.30;99.90
39033;DHT22;24794;51.982;5.878;2023-04-30T00:30:54;11.20;99.90
39033;DHT22;24794;51.982;5.878;2023-04-30T00:31:55;11.20;99.90
39033;DHT22;24794;51.982;5.878;2023-04-30T00:32:55;11.20;99.90
39033;DHT22;24794;51.982;5.878;2023-04-30T00:33:56;11.20;99.90
39033;DHT22;24794;51.982;5.878;2023-04-30T00:34:56;11.20;99.90
39033;DHT22;24794;51.982;5.878;2023-04-30T00:35:57;11.10;99.90
39033;DHT22;24794;51.982;5.878;2023-04-30T00:36:57;11.10;99.90
39033;DHT22;24794;51.982;5.878;2023-04-30T00:37:58;11.20;99.90
39033;DHT22;24794;51.982;5.878;2023-04-30T00:38:58;11.10;99.90
39033;DHT22;24794;51.982;5.878;2023-04-30T00:39:59;11.10;99.90
39033;DHT22;24794;51.982;5.878;2023-04-30T00:41:00;11.10;99.90
39033;DHT22;24794;51.982;5.878;2023-04-30T00:42:00;11.10;99.90
39033;DHT22;24794;51.982;5.878;2023-04-30T00:43:02;11.10;99.90
39033;DHT22;24794;51.982;5.878;2023-04-30T00:44:02;11.10;99.90
39033;DHT22;24794;51.982;5.878;2023-04-30T00:45:03;11.10;99.90
39033;DHT22;24794;51.982;5.878;2023-04-30T00:46:04;11.10;99.90
39033;DHT22;24794;51.982;5.878;2023-04-30T00:47:05;11.10;99.90
39033;DHT22;24794;51.982;5.878;2023-04-30T00:48:06;11.10;99.90
39033;DHT22;24794;51.982;5.878;2023-04-30T00:49:07;11.10;99.90
39033;DHT22;24794;51.982;5.878;2023-04-30T00:50:08;11.10;99.90
39033;DHT22;24794;51.982;5.878;2023-04-30T00:51:09;11.00;99.90
39033;DHT22;24794;51.982;5.878;2023-04-30T00:52:10;11.10;99.90
39033;DHT22;24794;51.982;5.878;2023-04-30T00:53:11;11.10;99.90
39033;DHT22;24794;51.982;5.878;2023-04-30T00:54:12;11.10;99.90
39033;DHT22;24794;51.982;5.878;2023-04-30T00:55:13;11.10;99.90
39033;DHT22;24794;51.982;5.878;2023-04-30T00:56:14;11.10;99.90
39033;DHT22;24794;51.982;5.878;2023-04-30T00:57:19;11.10;99.90
39033;DHT22;24794;51.982;5.878;2023-04-30T00:58:20;11.10;99.90
39033;DHT22;24794;51.982;5.878;2023-04-30T00:59:22;11.00;99.90
39033;DHT22;24794;51.982;5.878;2023-04-30T01:00:22;11.00;99.90
39033;DHT22;24794;51.982;5.878;2023-04-30T01:01:27;11.00;99.90
39033;DHT22;24794;51.982;5.878;2023-04-30T01:02:31;11.00;99.90
39033;DHT22;24794;51.982;5.878;2023-04-30T01:03:31;11.00;99.90
39033;DHT22;24794;51.982;5.878;2023-04-30T01:04:32;11.00;99.90
39033;DHT22;24794;51.982;5.878;2023-04-30T01:05:33;11.00;99.90
39033;DHT22;24794;51.982;5.878;2023-04-30T01:06:33;11.00;99.90
39033;DHT22;24794;51.982;5.878;2023-04-30T01:07:35;11.00;99.90
39033;DHT22;24794;51.982;5.878;2023-04-30T01:08:37;11.00;99.90
39033;DHT22;24794;51.982;5.878;2023-04-30T01:09:38;11.00;99.90
39033;DHT22;24794;51.982;5.878;2023-04-30T01:11:11;11.00;99.90
39033;DHT22;24794;51.982;5.878;2023-04-30T01:13:10;10.90;99.90
39033;DHT22;24794;51.982;5.878;2023-04-30T01:14:06;10.90;99.90
39033;DHT22;24794;51.982;5.878;2023-04-30T01:15:20;10.90;99.90
39033;DHT22;24794;51.982;5.878;2023-04-30T01:16:25;10.90;99.90
39033;DHT22;24794;51.982;5.878;2023-04-30T01:17:55;10.90;99.90
39033;DHT22;24794;51.982;5.878;2023-04-30T01:19:04;10.90;99.90
39033;DHT22;24794;51.982;5.878;2023-04-30T01:20:09;10.90;99.90
39033;DHT22;24794;51.982;5.878;2023-04-30T01:21:11;10.90;99.90
39033;DHT22;24794;51.982;5.878;2023-04-30T01:22:29;10.90;99.90
39033;DHT22;24794;51.982;5.878;2023-04-30T01:24:48;10.80;99.90
39033;DHT22;24794;51.982;5.878;2023-04-30T01:26:10;10.80;99.90
39033;DHT22;24794;51.982;5.878;2023-04-30T01:28:29;10.80;99.90
39033;DHT22;24794;51.982;5.878;2023-04-30T01:29:31;10.80;99.90
39033;DHT22;24794;51.982;5.878;2023-04-30T01:30:37;10.80;99.90
39033;DHT22;24794;51.982;5.878;2023-04-30T01:31:42;10.80;99.90
39033;DHT22;24794;51.982;5.878;2023-04-30T01:32:43;10.80;99.90
39033;DHT22;24794;51.982;5.878;2023-04-30T01:33:43;10.80;99.90
39033;DHT22;24794;51.982;5.878;2023-04-30T01:34:44;10.80;99.90
39033;DHT22;24794;51.982;5.878;2023-04-30T01:38:19;10.80;99.90
39033;DHT22;24794;51.982;5.878;2023-04-30T01:44:23;10.70;99.90
39033;DHT22;24794;51.982;5.878;2023-04-30T01:47:05;10.70;99.90
39033;DHT22;24794;51.982;5.878;2023-04-30T01:48:24;10.70;99.90
39033;DHT22;24794;51.982;5.878;2023-04-30T01:50:54;10.70;99.90
39033;DHT22;24794;51.982;5.878;2023-04-30T01:52:06;10.70;99.90
39033;DHT22;24794;51.982;5.878;2023-04-30T01:53:15;10.70;99.90
39033;DHT22;24794;51.982;5.878;2023-04-30T01:55:36;10.70;99.90
39033;DHT22;24794;51.982;5.878;2023-04-30T01:56:44;10.70;99.90
39033;DHT22;24794;51.982;5.878;2023-04-30T01:58:04;10.70;99.90
39033;DHT22;24794;51.982;5.878;2023-04-30T01:59:07;10.70;99.90
39033;DHT22;24794;51.982;5.878;2023-04-30T02:00:08;10.70;99.90
39033;DHT22;24794;51.982;5.878;2023-04-30T02:01:28;10.60;99.90
39033;DHT22;24794;51.982;5.878;2023-04-30T02:02:30;10.70;99.90
39033;DHT22;24794;51.982;5.878;2023-04-30T02:03:32;10.70;99.90
39033;DHT22;24794;51.982;5.878;2023-04-30T02:04:32;10.60;99.90
39033;DHT22;24794;51.982;5.878;2023-04-30T02:05:33;10.60;99.90
39033;DHT22;24794;51.982;5.878;2023-04-30T02:06:34;10.60;99.90
39033;DHT22;24794;51.982;5.878;2023-04-30T02:07:43;10.60;99.90
39033;DHT22;24794;51.982;5.878;2023-04-30T02:08:44;10.60;99.90
39033;DHT22;24794;51.982;5.878;2023-04-30T02:09:44;10.60;99.90
39033;DHT22;24794;51.982;5.878;2023-04-30T02:10:45;10.60;99.90
39033;DHT22;24794;51.982;5.878;2023-04-30T02:11:45;10.60;99.90
39033;DHT22;24794;51.982;5.878;2023-04-30T02:12:46;10.60;99.90
39033;DHT22;24794;51.982;5.878;2023-04-30T02:13:47;10.60;99.90
39033;DHT22;24794;51.982;5.878;2023-04-30T02:14:47;10.50;99.90
39033;DHT22;24794;51.982;5.878;2023-04-30T02:15:48;10.50;99.90
39033;DHT22;24794;51.982;5.878;2023-04-30T02:16:48;10.60;99.90
39033;DHT22;24794;51.982;5.878;2023-04-30T02:17:49;10.60;99.90
39033;DHT22;24794;51.982;5.878;2023-04-30T02:18:50;10.60;99.90
39033;DHT22;24794;51.982;5.878;2023-04-30T02:19:51;10.50;99.90
39033;DHT22;24794;51.982;5.878;2023-04-30T02:20:51;10.50;99.90
39033;DHT22;24794;51.982;5.878;2023-04-30T02:21:52;10.50;99.90
39033;DHT22;24794;51.982;5.878;2023-04-30T02:22:52;10.50;99.90
39033;DHT22;24794;51.982;5.878;2023-04-30T02:23:53;10.50;99.90
39033;DHT22;24794;51.982;5.878;2023-04-30T02:24:53;10.50;99.90
39033;DHT22;24794;51.982;5.878;2023-04-30T02:25:55;10.50;99.90
39033;DHT22;24794;51.982;5.878;2023-04-30T02:26:55;10.50;99.90
39033;DHT22;24794;51.982;5.878;2023-04-30T02:27:56;10.50;99.90
39033;DHT22;24794;51.982;5.878;2023-04-30T02:28:56;10.50;99.90
39033;DHT22;24794;51.982;5.878;2023-04-30T02:29:57;10.50;99.90
39033;DHT22;24794;51.982;5.878;2023-04-30T02:30:58;10.50;99.90
39033;DHT22;24794;51.982;5.878;2023-04-30T02:31:59;10.50;99.90
39033;DHT22;24794;51.982;5.878;2023-04-30T02:33:00;10.50;99.90
39033;DHT22;24794;51.982;5.878;2023-04-30T02:34:01;10.50;99.90
39033;DHT22;24794;51.982;5.878;2023-04-30T02:35:02;10.50;99.90
39033;DHT22;24794;51.982;5.878;2023-04-30T02:36:03;10.40;99.90
39033;DHT22;24794;51.982;5.878;2023-04-30T02:37:04;10.50;99.90
39033;DHT22;24794;51.982;5.878;2023-04-30T02:38:04;10.50;99.90
39033;DHT22;24794;51.982;5.878;2023-04-30T02:39:05;10.50;99.90
39033;DHT22;24794;51.982;5.878;2023-04-30T02:40:06;10.40;99.90
39033;DHT22;24794;51.982;5.878;2023-04-30T02:41:07;10.40;99.90
39033;DHT22;24794;51.982;5.878;2023-04-30T02:42:07;10.40;99.90
39033;DHT22;24794;51.982;5.878;2023-04-30T02:43:08;10.40;99.90
39033;DHT22;24794;51.982;5.878;2023-04-30T02:44:08;10.30;99.90
39033;DHT22;24794;51.982;5.878;2023-04-30T02:45:09;10.30;99.90
39033;DHT22;24794;51.982;5.878;2023-04-30T02:46:10;10.30;99.90
39033;DHT22;24794;51.982;5.878;2023-04-30T02:47:10;10.30;99.90
39033;DHT22;24794;51.982;5.878;2023-04-30T02:48:12;10.30;99.90
39033;DHT22;24794;51.982;5.878;2023-04-30T02:49:12;10.30;99.90
39033;DHT22;24794;51.982;5.878;2023-04-30T02:50:13;10.30;99.90
39033;DHT22;24794;51.982;5.878;2023-04-30T02:51:14;10.20;99.90
39033;DHT22;24794;51.982;5.878;2023-04-30T02:52:14;10.20;99.90
39033;DHT22;24794;51.982;5.878;2023-04-30T02:53:15;10.20;99.90
39033;DHT22;24794;51.982;5.878;2023-04-30T02:54:15;10.30;99.90
39033;DHT22;24794;51.982;5.878;2023-04-30T02:55:16;10.20;99.90
39033;DHT22;24794;51.982;5.878;2023-04-30T02:56:16;10.20;99.90
39033;DHT22;24794;51.982;5.878;2023-04-30T02:57:17;10.20;99.90
39033;DHT22;24794;51.982;5.878;2023-04-30T02:58:17;10.20;99.90
39033;DHT22;24794;51.982;5.878;2023-04-30T02:59:18;10.20;99.90
39033;DHT22;24794;51.982;5.878;2023-04-30T03:00:18;10.10;99.90
39033;DHT22;24794;51.982;5.878;2023-04-30T03:01:19;10.10;99.90
39033;DHT22;24794;51.982;5.878;2023-04-30T03:02:20;10.10;99.90
39033;DHT22;24794;51.982;5.878;2023-04-30T03:03:22;10.20;99.90
39033;DHT22;24794;51.982;5.878;2023-04-30T03:04:23;10.20;99.90
39033;DHT22;24794;51.982;5.878;2023-04-30T03:05:23;10.20;99.90
39033;DHT22;24794;51.982;5.878;2023-04-30T03:06:24;10.20;99.90
39033;DHT22;24794;51.982;5.878;2023-04-30T03:07:24;10.20;99.90
39033;DHT22;24794;51.982;5.878;2023-04-30T03:08:25;10.20;99.90
39033;DHT22;24794;51.982;5.878;2023-04-30T03:09:26;10.20;99.90
39033;DHT22;24794;51.982;5.878;2023-04-30T03:10:26;10.10;99.90
39033;DHT22;24794;51.982;5.878;2023-04-30T03:11:27;10.10;99.90
39033;DHT22;24794;51.982;5.878;2023-04-30T03:12:27;10.20;99.90
39033;DHT22;24794;51.982;5.878;2023-04-30T03:13:28;10.20;99.90
39033;DHT22;24794;51.982;5.878;2023-04-30T03:14:29;10.20;99.90
39033;DHT22;24794;51.982;5.878;2023-04-30T03:15:31;10.20;99.90
39033;DHT22;24794;51.982;5.878;2023-04-30T03:16:32;10.20;99.90
39033;DHT22;24794;51.982;5.878;2023-04-30T03:17:32;10.20;99.90
39033;DHT22;24794;51.982;5.878;2023-04-30T03:18:33;10.20;99.90
39033;DHT22;24794;51.982;5.878;2023-04-30T03:19:33;10.20;99.90
39033;DHT22;24794;51.982;5.878;2023-04-30T03:20:34;10.10;99.90
39033;DHT22;24794;51.982;5.878;2023-04-30T03:21:35;10.20;99.90
39033;DHT22;24794;51.982;5.878;2023-04-30T03:22:35;10.20;99.90
39033;DHT22;24794;51.982;5.878;2023-04-30T03:23:36;10.20;99.90
39033;DHT22;24794;51.982;5.878;2023-04-30T03:24:36;10.20;99.90
39033;DHT22;24794;51.982;5.878;2023-04-30T03:25:37;10.20;99.90
39033;DHT22;24794;51.982;5.878;2023-04-30T03:26:37;10.20;99.90
39033;DHT22;24794;51.982;5.878;2023-04-30T03:27:38;10.10;99.90
39033;DHT22;24794;51.982;5.878;2023-04-30T03:28:39;10.20;99.90
39033;DHT22;24794;51.982;5.878;2023-04-30T03:29:39;10.20;99.90
39033;DHT22;24794;51.982;5.878;2023-04-30T03:30:40;10.10;99.90
39033;DHT22;24794;51.982;5.878;2023-04-30T03:31:41;10.20;99.90
39033;DHT22;24794;51.982;5.878;2023-04-30T03:32:41;10.20;99.90
39033;DHT22;24794;51.982;5.878;2023-04-30T03:33:42;10.20;99.90
39033;DHT22;24794;51.982;5.878;2023-04-30T03:34:42;10.20;99.90
39033;DHT22;24794;51.982;5.878;2023-04-30T03:35:43;10.10;99.90
39033;DHT22;24794;51.982;5.878;2023-04-30T03:36:43;10.10;99.90
39033;DHT22;24794;51.982;5.878;2023-04-30T03:37:44;10.10;99.90
39033;DHT22;24794;51.982;5.878;2023-04-30T03:38:45;10.10;99.90
39033;DHT22;24794;51.982;5.878;2023-04-30T03:39:45;10.10;99.90
39033;DHT22;24794;51.982;5.878;2023-04-30T03:40:46;10.10;99.90
39033;DHT22;24794;51.982;5.878;2023-04-30T03:41:46;10.00;99.90
39033;DHT22;24794;51.982;5.878;2023-04-30T03:42:47;10.00;99.90
39033;DHT22;24794;51.982;5.878;2023-04-30T03:43:47;10.00;99.90
39033;DHT22;24794;51.982;5.878;2023-04-30T03:44:48;10.00;99.90
39033;DHT22;24794;51.982;5.878;2023-04-30T03:45:48;10.00;99.90
39033;DHT22;24794;51.982;5.878;2023-04-30T03:46:49;10.00;99.90
39033;DHT22;24794;51.982;5.878;2023-04-30T03:47:50;9.90;99.90
39033;DHT22;24794;51.982;5.878;2023-04-30T03:48:51;9.90;99.90
39033;DHT22;24794;51.982;5.878;2023-04-30T03:49:52;9.90;99.90
39033;DHT22;24794;51.982;5.878;2023-04-30T03:50:54;9.90;99.90
39033;DHT22;24794;51.982;5.878;2023-04-30T03:51:55;9.80;99.90
39033;DHT22;24794;51.982;5.878;2023-04-30T03:52:55;9.90;99.90
39033;DHT22;24794;51.982;5.878;2023-04-30T03:53:56;9.90;99.90
39033;DHT22;24794;51.982;5.878;2023-04-30T03:54:56;9.90;99.90
39033;DHT22;24794;51.982;5.878;2023-04-30T03:55:57;9.80;99.90
39033;DHT22;24794;51.982;5.878;2023-04-30T03:56:59;9.80;99.90
39033;DHT22;24794;51.982;5.878;2023-04-30T03:57:59;9.80;99.90
39033;DHT22;24794;51.982;5.878;2023-04-30T03:59:00;9.80;99.90
39033;DHT22;24794;51.982;5.878;2023-04-30T04:00:01;9.80;99.90
39033;DHT22;24794;51.982;5.878;2023-04-30T04:01:06;9.70;99.90
39033;DHT22;24794;51.982;5.878;2023-04-30T04:02:07;9.70;99.90
39033;DHT22;24794;51.982;5.878;2023-04-30T04:03:08;9.70;99.90
39033;DHT22;24794;51.982;5.878;2023-04-30T04:04:08;9.60;99.90
39033;DHT22;24794;51.982;5.878;2023-04-30T04:05:09;9.60;99.90
39033;DHT22;24794;51.982;5.878;2023-04-30T04:06:10;9.60;99.90
39033;DHT22;24794;51.982;5.878;2023-04-30T04:07:10;9.60;99.90
39033;DHT22;24794;51.982;5.878;2023-04-30T04:08:11;9.60;99.90
39033;DHT22;24794;51.982;5.878;2023-04-30T04:09:11;9.50;99.90
39033;DHT22;24794;51.982;5.878;2023-04-30T04:10:12;9.60;99.90
39033;DHT22;24794;51.982;5.878;2023-04-30T04:11:13;9.50;99.90
39033;DHT22;24794;51.982;5.878;2023-04-30T04:12:13;9.50;99.90
39033;DHT22;24794;51.982;5.878;2023-04-30T04:13:14;9.50;99.90
39033;DHT22;24794;51.982;5.878;2023-04-30T04:14:14;9.50;99.90
39033;DHT22;24794;51.982;5.878;2023-04-30T04:15:15;9.50;99.90
39033;DHT22;24794;51.982;5.878;2023-04-30T04:16:16;9.40;99.90
39033;DHT22;24794;51.982;5.878;2023-04-30T04:17:17;9.40;99.90
39033;DHT22;24794;51.982;5.878;2023-04-30T04:18:17;9.40;99.90
39033;DHT22;24794;51.982;5.878;2023-04-30T04:19:18;9.40;99.90
39033;DHT22;24794;51.982;5.878;2023-04-30T04:20:18;9.40;99.90
39033;DHT22;24794;51.982;5.878;2023-04-30T04:21:19;9.40;99.90
39033;DHT22;24794;51.982;5.878;2023-04-30T04:22:19;9.40;99.90
39033;DHT22;24794;51.982;5.878;2023-04-30T04:23:20;9.40;99.90
39033;DHT22;24794;51.982;5.878;2023-04-30T04:24:20;9.40;99.90
39033;DHT22;24794;51.982;5.878;2023-04-30T04:25:21;9.40;99.90
39033;DHT22;24794;51.982;5.878;2023-04-30T04:26:24;9.40;99.90
39033;DHT22;24794;51.982;5.878;2023-04-30T04:27:25;9.40;99.90
39033;DHT22;24794;51.982;5.878;2023-04-30T04:28:25;9.40;99.90
39033;DHT22;24794;51.982;5.878;2023-04-30T04:29:26;9.40;99.90
39033;DHT22;24794;51.982;5.878;2023-04-30T04:30:27;9.40;99.90
39033;DHT22;24794;51.982;5.878;2023-04-30T04:31:27;9.40;99.90
39033;DHT22;24794;51.982;5.878;2023-04-30T04:32:28;9.40;99.90
39033;DHT22;24794;51.982;5.878;2023-04-30T04:33:29;9.40;99.90
39033;DHT22;24794;51.982;5.878;2023-04-30T04:34:31;9.40;99.90
39033;DHT22;24794;51.982;5.878;2023-04-30T04:35:31;9.40;99.90
39033;DHT22;24794;51.982;5.878;2023-04-30T04:36:32;9.40;99.90
39033;DHT22;24794;51.982;5.878;2023-04-30T04:37:34;9.40;99.90
39033;DHT22;24794;51.982;5.878;2023-04-30T04:38:34;9.40;99.90
39033;DHT22;24794;51.982;5.878;2023-04-30T04:39:35;9.50;99.90
39033;DHT22;24794;51.982;5.878;2023-04-30T04:40:36;9.50;99.90
39033;DHT22;24794;51.982;5.878;2023-04-30T04:41:37;9.50;99.90
39033;DHT22;24794;51.982;5.878;2023-04-30T04:42:38;9.40;99.90
39033;DHT22;24794;51.982;5.878;2023-04-30T04:43:38;9.40;99.90
39033;DHT22;24794;51.982;5.878;2023-04-30T04:44:39;9.50;99.90
39033;DHT22;24794;51.982;5.878;2023-04-30T04:45:40;9.50;99.90
39033;DHT22;24794;51.982;5.878;2023-04-30T04:46:41;9.50;99.90
39033;DHT22;24794;51.982;5.878;2023-04-30T04:47:43;9.40;99.90
39033;DHT22;24794;51.982;5.878;2023-04-30T04:48:44;9.50;99.90
39033;DHT22;24794;51.982;5.878;2023-04-30T04:49:44;9.40;99.90
39033;DHT22;24794;51.982;5.878;2023-04-30T04:50:45;9.40;99.90
39033;DHT22;24794;51.982;5.878;2023-04-30T04:51:45;9.40;99.90
39033;DHT22;24794;51.982;5.878;2023-04-30T04:52:46;9.40;99.90
39033;DHT22;24794;51.982;5.878;2023-04-30T04:53:46;9.40;99.90
39033;DHT22;24794;51.982;5.878;2023-04-30T04:54:47;9.40;99.90
39033;DHT22;24794;51.982;5.878;2023-04-30T04:55:48;9.50;99.90
39033;DHT22;24794;51.982;5.878;2023-04-30T04:56:48;9.50;99.90
39033;DHT22;24794;51.982;5.878;2023-04-30T04:57:49;9.50;99.90
39033;DHT22;24794;51.982;5.878;2023-04-30T04:58:49;9.50;99.90
39033;DHT22;24794;51.982;5.878;2023-04-30T04:59:50;9.50;99.90
39033;DHT22;24794;51.982;5.878;2023-04-30T05:00:50;9.60;99.90
39033;DHT22;24794;51.982;5.878;2023-04-30T05:01:51;9.50;99.90
39033;DHT22;24794;51.982;5.878;2023-04-30T05:02:51;9.60;99.90
39033;DHT22;24794;51.982;5.878;2023-04-30T05:03:52;9.50;99.90
39033;DHT22;24794;51.982;5.878;2023-04-30T05:04:53;9.60;99.90
39033;DHT22;24794;51.982;5.878;2023-04-30T05:05:54;9.50;99.90
39033;DHT22;24794;51.982;5.878;2023-04-30T05:06:54;9.60;99.90
39033;DHT22;24794;51.982;5.878;2023-04-30T05:07:55;9.60;99.90
39033;DHT22;24794;51.982;5.878;2023-04-30T05:08:55;9.50;99.90
39033;DHT22;24794;51.982;5.878;2023-04-30T05:09:56;9.60;99.90
39033;DHT22;24794;51.982;5.878;2023-04-30T05:10:57;9.60;99.90
39033;DHT22;24794;51.982;5.878;2023-04-30T05:11:57;9.60;99.90
39033;DHT22;24794;51.982;5.878;2023-04-30T05:12:58;9.60;99.90
39033;DHT22;24794;51.982;5.878;2023-04-30T05:13:58;9.60;99.90
39033;DHT22;24794;51.982;5.878;2023-04-30T05:14:59;9.60;99.90
39033;DHT22;24794;51.982;5.878;2023-04-30T05:15:59;9.70;99.90
39033;DHT22;24794;51.982;5.878;2023-04-30T05:17:00;9.60;99.90
39033;DHT22;24794;51.982;5.878;2023-04-30T05:18:00;9.60;99.90
39033;DHT22;24794;51.982;5.878;2023-04-30T05:19:01;9.70;99.90
39033;DHT22;24794;51.982;5.878;2023-04-30T05:20:02;9.70;99.90
39033;DHT22;24794;51.982;5.878;2023-04-30T05:21:02;9.70;99.90
39033;DHT22;24794;51.982;5.878;2023-04-30T05:22:03;9.70;99.90
39033;DHT22;24794;51.982;5.878;2023-04-30T05:23:04;9.70;99.90
39033;DHT22;24794;51.982;5.878;2023-04-30T05:24:05;9.70;99.90
39033;DHT22;24794;51.982;5.878;2023-04-30T05:25:06;9.70;99.90
39033;DHT22;24794;51.982;5.878;2023-04-30T05:26:06;9.70;99.90
39033;DHT22;24794;51.982;5.878;2023-04-30T05:27:07;9.70;99.90
39033;DHT22;24794;51.982;5.878;2023-04-30T05:28:08;9.80;99.90
39033;DHT22;24794;51.982;5.878;2023-04-30T05:29:09;9.80;99.90
39033;DHT22;24794;51.982;5.878;2023-04-30T05:30:11;9.80;99.90
39033;DHT22;24794;51.982;5.878;2023-04-30T05:31:12;9.80;99.90
39033;DHT22;24794;51.982;5.878;2023-04-30T05:32:12;9.80;99.90
39033;DHT22;24794;51.982;5.878;2023-04-30T05:33:13;9.90;99.90
39033;DHT22;24794;51.982;5.878;2023-04-30T05:34:13;9.90;99.90
39033;DHT22;24794;51.982;5.878;2023-04-30T05:35:17;10.00;99.90
39033;DHT22;24794;51.982;5.878;2023-04-30T05:36:18;10.00;99.90
39033;DHT22;24794;51.982;5.878;2023-04-30T05:37:18;10.00;99.90
39033;DHT22;24794;51.982;5.878;2023-04-30T05:38:21;10.00;99.90
39033;DHT22;24794;51.982;5.878;2023-04-30T05:39:22;10.10;99.90
39033;DHT22;24794;51.982;5.878;2023-04-30T05:40:23;10.10;99.90
39033;DHT22;24794;51.982;5.878;2023-04-30T05:41:23;10.10;99.90
39033;DHT22;24794;51.982;5.878;2023-04-30T05:42:24;10.20;99.90
39033;DHT22;24794;51.982;5.878;2023-04-30T05:43:24;10.20;99.90
39033;DHT22;24794;51.982;5.878;2023-04-30T05:44:25;10.30;99.90
39033;DHT22;24794;51.982;5.878;2023-04-30T05:45:25;10.30;99.90
39033;DHT22;24794;51.982;5.878;2023-04-30T05:46:26;10.30;99.90
39033;DHT22;24794;51.982;5.878;2023-04-30T05:47:27;10.40;99.90
39033;DHT22;24794;51.982;5.878;2023-04-30T05:48:28;10.40;99.90
39033;DHT22;24794;51.982;5.878;2023-04-30T05:49:28;10.50;99.90
39033;DHT22;24794;51.982;5.878;2023-04-30T05:50:29;10.50;99.90
39033;DHT22;24794;51.982;5.878;2023-04-30T05:51:29;10.50;99.90
39033;DHT22;24794;51.982;5.878;2023-04-30T05:52:30;10.60;99.90
39033;DHT22;24794;51.982;5.878;2023-04-30T05:53:31;10.60;99.90
39033;DHT22;24794;51.982;5.878;2023-04-30T05:54:32;10.60;99.90
39033;DHT22;24794;51.982;5.878;2023-04-30T05:55:33;10.70;99.90
39033;DHT22;24794;51.982;5.878;2023-04-30T05:56:33;10.70;99.90
39033;DHT22;24794;51.982;5.878;2023-04-30T05:57:34;10.80;99.90
39033;DHT22;24794;51.982;5.878;2023-04-30T05:58:35;10.80;99.90
39033;DHT22;24794;51.982;5.878;2023-04-30T05:59:35;10.90;99.90
39033;DHT22;24794;51.982;5.878;2023-04-30T06:00:36;10.90;99.90
39033;DHT22;24794;51.982;5.878;2023-04-30T06:01:37;10.90;99.90
39033;DHT22;24794;51.982;5.878;2023-04-30T06:02:37;11.00;99.90
39033;DHT22;24794;51.982;5.878;2023-04-30T06:03:38;11.00;99.90
39033;DHT22;24794;51.982;5.878;2023-04-30T06:04:39;11.00;99.90
39033;DHT22;24794;51.982;5.878;2023-04-30T06:05:39;11.00;99.90
39033;DHT22;24794;51.982;5.878;2023-04-30T06:06:40;11.10;99.90
39033;DHT22;24794;51.982;5.878;2023-04-30T06:07:41;11.10;99.90
39033;DHT22;24794;51.982;5.878;2023-04-30T06:08:41;11.10;99.90
39033;DHT22;24794;51.982;5.878;2023-04-30T06:09:44;11.10;99.90
39033;DHT22;24794;51.982;5.878;2023-04-30T06:10:45;11.20;99.90
39033;DHT22;24794;51.982;5.878;2023-04-30T06:11:45;11.20;99.90
39033;DHT22;24794;51.982;5.878;2023-04-30T06:12:49;11.20;99.90
39033;DHT22;24794;51.982;5.878;2023-04-30T06:13:50;11.30;99.90
39033;DHT22;24794;51.982;5.878;2023-04-30T06:14:51;11.30;99.90
39033;DHT22;24794;51.982;5.878;2023-04-30T06:15:51;11.30;99.90
39033;DHT22;24794;51.982;5.878;2023-04-30T06:16:52;11.30;99.90
39033;DHT22;24794;51.982;5.878;2023-04-30T06:17:53;11.40;99.90
39033;DHT22;24794;51.982;5.878;2023-04-30T06:18:53;11.30;99.90
39033;DHT22;24794;51.982;5.878;2023-04-30T06:19:54;11.40;99.90
39033;DHT22;24794;51.982;5.878;2023-04-30T06:20:55;11.40;99.90
39033;DHT22;24794;51.982;5.878;2023-04-30T06:21:55;11.40;99.90
39033;DHT22;24794;51.982;5.878;2023-04-30T06:22:56;11.40;99.90
39033;DHT22;24794;51.982;5.878;2023-04-30T06:23:56;11.50;99.90
39033;DHT22;24794;51.982;5.878;2023-04-30T06:24:57;11.50;99.90
39033;DHT22;24794;51.982;5.878;2023-04-30T06:25:57;11.60;99.90
39033;DHT22;24794;51.982;5.878;2023-04-30T06:26:58;11.60;99.90
39033;DHT22;24794;51.982;5.878;2023-04-30T06:27:59;11.60;99.90
39033;DHT22;24794;51.982;5.878;2023-04-30T06:28:59;11.70;99.90
39033;DHT22;24794;51.982;5.878;2023-04-30T06:30:00;11.70;99.90
39033;DHT22;24794;51.982;5.878;2023-04-30T06:31:00;11.70;99.90
39033;DHT22;24794;51.982;5.878;2023-04-30T06:32:01;11.70;99.90
39033;DHT22;24794;51.982;5.878;2023-04-30T06:33:02;11.70;99.90
39033;DHT22;24794;51.982;5.878;2023-04-30T06:34:02;11.70;99.90
39033;DHT22;24794;51.982;5.878;2023-04-30T06:35:03;11.70;99.90
39033;DHT22;24794;51.982;5.878;2023-04-30T06:36:05;11.70;99.90
39033;DHT22;24794;51.982;5.878;2023-04-30T06:37:05;11.70;99.90
39033;DHT22;24794;51.982;5.878;2023-04-30T06:38:06;11.70;99.90
39033;DHT22;24794;51.982;5.878;2023-04-30T06:39:07;11.70;99.90
39033;DHT22;24794;51.982;5.878;2023-04-30T06:40:07;11.80;99.90
39033;DHT22;24794;51.982;5.878;2023-04-30T06:41:08;11.80;99.90
39033;DHT22;24794;51.982;5.878;2023-04-30T06:42:08;11.80;99.90
39033;DHT22;24794;51.982;5.878;2023-04-30T06:43:09;11.80;99.90
39033;DHT22;24794;51.982;5.878;2023-04-30T06:44:10;11.90;99.90
39033;DHT22;24794;51.982;5.878;2023-04-30T06:45:11;11.90;99.90